sensor_id;sensor_type;location;lat;lon;timestamp;P1;durP1;ratioP1;P2;durP2;ratioP2
48743;SDS011;34538;48.836;9.174;2023-02-01T00:00:55;2.70;;;2.00;;
48743;SDS011;34538;48.836;9.174;2023-02-01T00:03:22;4.68;;;2.28;;
48743;SDS011;34538;48.836;9.174;2023-02-01T00:05:54;3.80;;;2.60;;
48743;SDS011;34538;48.836;9.174;2023-02-01T00:08:22;4.13;;;2.03;;
48743;SDS011;34538;48.836;9.174;2023-02-01T00:10:48;3.30;;;1.77;;
48743;SDS011;34538;48.836;9.174;2023-02-01T00:13:23;4.03;;;1.92;;
48743;SDS011;34538;48.836;9.174;2023-02-01T00:15:51;4.07;;;1.90;;
48743;SDS011;34538;48.836;9.174;2023-02-01T00:18:18;3.70;;;1.70;;
48743;SDS011;34538;48.836;9.174;2023-02-01T00:20:45;2.65;;;1.40;;
48743;SDS011;34538;48.836;9.174;2023-02-01T00:23:12;3.22;;;1.55;;
48743;SDS011;34538;48.836;9.174;2023-02-01T00:25:38;2.13;;;1.38;;
48743;SDS011;34538;48.836;9.174;2023-02-01T00:28:05;1.92;;;1.17;;
48743;SDS011;34538;48.836;9.174;2023-02-01T00:30:32;2.42;;;1.42;;
48743;SDS011;34538;48.836;9.174;2023-02-01T00:33:01;2.22;;;1.35;;
48743;SDS011;34538;48.836;9.174;2023-02-01T00:35:28;3.15;;;1.73;;
48743;SDS011;34538;48.836;9.174;2023-02-01T00:37:54;3.10;;;1.88;;
48743;SDS011;34538;48.836;9.174;2023-02-01T00:40:23;3.70;;;1.67;;
48743;SDS011;34538;48.836;9.174;2023-02-01T00:42:50;3.72;;;1.38;;
48743;SDS011;34538;48.836;9.174;2023-02-01T00:45:17;2.63;;;1.48;;
48743;SDS011;34538;48.836;9.174;2023-02-01T00:47:44;2.42;;;1.25;;
48743;SDS011;34538;48.836;9.174;2023-02-01T00:50:13;2.63;;;1.33;;
48743;SDS011;34538;48.836;9.174;2023-02-01T00:52:40;2.65;;;1.00;;
48743;SDS011;34538;48.836;9.174;2023-02-01T00:55:07;4.00;;;1.20;;
48743;SDS011;34538;48.836;9.174;2023-02-01T00:57:34;2.35;;;1.30;;
48743;SDS011;34538;48.836;9.174;2023-02-01T01:00:01;1.95;;;1.30;;
48743;SDS011;34538;48.836;9.174;2023-02-01T01:02:28;1.73;;;1.13;;
48743;SDS011;34538;48.836;9.174;2023-02-01T01:04:55;2.00;;;1.27;;
48743;SDS011;34538;48.836;9.174;2023-02-01T01:07:23;1.65;;;1.23;;
48743;SDS011;34538;48.836;9.174;2023-02-01T01:09:50;3.05;;;1.27;;
48743;SDS011;34538;48.836;9.174;2023-02-01T01:12:17;2.05;;;0.98;;
48743;SDS011;34538;48.836;9.174;2023-02-01T01:14:44;2.03;;;1.13;;
48743;SDS011;34538;48.836;9.174;2023-02-01T01:17:11;2.28;;;1.10;;
48743;SDS011;34538;48.836;9.174;2023-02-01T01:19:38;2.28;;;1.00;;
48743;SDS011;34538;48.836;9.174;2023-02-01T01:22:05;1.65;;;1.08;;
48743;SDS011;34538;48.836;9.174;2023-02-01T01:24:33;1.38;;;1.05;;
48743;SDS011;34538;48.836;9.174;2023-02-01T01:27:00;2.35;;;1.30;;
48743;SDS011;34538;48.836;9.174;2023-02-01T01:29:26;3.30;;;1.73;;
48743;SDS011;34538;48.836;9.174;2023-02-01T01:31:53;1.23;;;1.05;;
48743;SDS011;34538;48.836;9.174;2023-02-01T01:34:20;2.40;;;1.20;;
48743;SDS011;34538;48.836;9.174;2023-02-01T01:36:47;2.92;;;1.30;;
48743;SDS011;34538;48.836;9.174;2023-02-01T01:39:14;2.95;;;1.30;;
48743;SDS011;34538;48.836;9.174;2023-02-01T01:41:42;2.10;;;1.23;;
48743;SDS011;34538;48.836;9.174;2023-02-01T01:47:30;1.33;;;1.10;;
48743;SDS011;34538;48.836;9.174;2023-02-01T01:50:00;3.35;;;1.10;;
48743;SDS011;34538;48.836;9.174;2023-02-01T01:52:27;1.60;;;1.10;;
48743;SDS011;34538;48.836;9.174;2023-02-01T01:54:55;1.77;;;1.00;;
48743;SDS011;34538;48.836;9.174;2023-02-01T01:57:26;4.50;;;1.30;;
48743;SDS011;34538;48.836;9.174;2023-02-01T01:59:58;1.63;;;0.98;;
48743;SDS011;34538;48.836;9.174;2023-02-01T02:02:38;1.30;;;0.98;;
48743;SDS011;34538;48.836;9.174;2023-02-01T02:05:08;1.25;;;0.88;;
48743;SDS011;34538;48.836;9.174;2023-02-01T02:07:36;1.77;;;1.10;;
48743;SDS011;34538;48.836;9.174;2023-02-01T02:10:06;2.10;;;1.38;;
48743;SDS011;34538;48.836;9.174;2023-02-01T02:12:38;1.35;;;1.13;;
48743;SDS011;34538;48.836;9.174;2023-02-01T02:15:08;0.95;;;0.60;;
48743;SDS011;34538;48.836;9.174;2023-02-01T02:17:39;2.92;;;1.10;;
48743;SDS011;34538;48.836;9.174;2023-02-01T02:20:20;1.52;;;0.80;;
48743;SDS011;34538;48.836;9.174;2023-02-01T02:26:04;1.70;;;1.00;;
48743;SDS011;34538;48.836;9.174;2023-02-01T02:31:40;1.10;;;0.70;;
48743;SDS011;34538;48.836;9.174;2023-02-01T02:34:31;1.95;;;1.00;;
48743;SDS011;34538;48.836;9.174;2023-02-01T02:37:05;1.52;;;0.90;;
48743;SDS011;34538;48.836;9.174;2023-02-01T02:39:40;2.53;;;0.95;;
48743;SDS011;34538;48.836;9.174;2023-02-01T02:42:17;2.17;;;0.88;;
48743;SDS011;34538;48.836;9.174;2023-02-01T02:45:11;1.52;;;0.90;;
48743;SDS011;34538;48.836;9.174;2023-02-01T02:48:02;1.90;;;1.00;;
48743;SDS011;34538;48.836;9.174;2023-02-01T02:50:38;1.90;;;1.10;;
48743;SDS011;34538;48.836;9.174;2023-02-01T02:53:31;2.08;;;1.10;;
48743;SDS011;34538;48.836;9.174;2023-02-01T02:56:19;3.55;;;1.17;;
48743;SDS011;34538;48.836;9.174;2023-02-01T02:59:06;1.88;;;1.02;;
48743;SDS011;34538;48.836;9.174;2023-02-01T03:01:52;2.35;;;1.20;;
48743;SDS011;34538;48.836;9.174;2023-02-01T03:04:38;2.00;;;1.42;;
48743;SDS011;34538;48.836;9.174;2023-02-01T03:07:14;1.65;;;1.20;;
48743;SDS011;34538;48.836;9.174;2023-02-01T03:10:04;1.92;;;1.17;;
48743;SDS011;34538;48.836;9.174;2023-02-01T03:12:36;1.77;;;1.00;;
48743;SDS011;34538;48.836;9.174;2023-02-01T03:15:24;2.08;;;1.40;;
48743;SDS011;34538;48.836;9.174;2023-02-01T03:17:57;3.03;;;1.10;;
48743;SDS011;34538;48.836;9.174;2023-02-01T03:20:27;3.03;;;1.35;;
48743;SDS011;34538;48.836;9.174;2023-02-01T03:22:57;2.50;;;1.35;;
48743;SDS011;34538;48.836;9.174;2023-02-01T03:25:27;2.42;;;1.42;;
48743;SDS011;34538;48.836;9.174;2023-02-01T03:30:28;3.42;;;1.48;;
48743;SDS011;34538;48.836;9.174;2023-02-01T03:32:58;1.80;;;1.35;;
48743;SDS011;34538;48.836;9.174;2023-02-01T03:35:33;3.13;;;1.85;;
48743;SDS011;34538;48.836;9.174;2023-02-01T03:38:12;1.95;;;1.30;;
48743;SDS011;34538;48.836;9.174;2023-02-01T03:40:51;2.63;;;1.47;;
48743;SDS011;34538;48.836;9.174;2023-02-01T03:43:22;2.10;;;1.27;;
48743;SDS011;34538;48.836;9.174;2023-02-01T03:45:52;1.30;;;1.02;;
48743;SDS011;34538;48.836;9.174;2023-02-01T03:48:24;3.35;;;1.63;;
48743;SDS011;34538;48.836;9.174;2023-02-01T03:50:55;2.33;;;1.45;;
48743;SDS011;34538;48.836;9.174;2023-02-01T03:53:25;2.30;;;1.38;;
48743;SDS011;34538;48.836;9.174;2023-02-01T03:55:55;1.88;;;1.25;;
48743;SDS011;34538;48.836;9.174;2023-02-01T03:58:23;1.42;;;1.10;;
48743;SDS011;34538;48.836;9.174;2023-02-01T04:00:52;2.47;;;1.38;;
48743;SDS011;34538;48.836;9.174;2023-02-01T04:03:21;1.63;;;1.07;;
48743;SDS011;34538;48.836;9.174;2023-02-01T04:05:48;1.30;;;1.10;;
48743;SDS011;34538;48.836;9.174;2023-02-01T04:08:16;1.60;;;1.20;;
48743;SDS011;34538;48.836;9.174;2023-02-01T04:10:43;1.52;;;1.00;;
48743;SDS011;34538;48.836;9.174;2023-02-01T04:13:11;1.33;;;0.95;;
48743;SDS011;34538;48.836;9.174;2023-02-01T04:15:38;1.92;;;0.93;;
48743;SDS011;34538;48.836;9.174;2023-02-01T04:18:05;1.58;;;1.08;;
48743;SDS011;34538;48.836;9.174;2023-02-01T04:20:32;2.13;;;1.20;;
48743;SDS011;34538;48.836;9.174;2023-02-01T04:22:59;1.70;;;1.20;;
48743;SDS011;34538;48.836;9.174;2023-02-01T04:25:27;2.92;;;1.75;;
48743;SDS011;34538;48.836;9.174;2023-02-01T04:27:54;5.95;;;2.53;;
48743;SDS011;34538;48.836;9.174;2023-02-01T04:30:22;2.65;;;1.02;;
48743;SDS011;34538;48.836;9.174;2023-02-01T04:32:49;1.55;;;1.08;;
48743;SDS011;34538;48.836;9.174;2023-02-01T04:35:16;2.20;;;1.10;;
48743;SDS011;34538;48.836;9.174;2023-02-01T04:37:43;1.80;;;1.10;;
48743;SDS011;34538;48.836;9.174;2023-02-01T04:40:10;2.55;;;1.70;;
48743;SDS011;34538;48.836;9.174;2023-02-01T04:42:38;1.75;;;1.20;;
48743;SDS011;34538;48.836;9.174;2023-02-01T04:45:05;1.70;;;1.13;;
48743;SDS011;34538;48.836;9.174;2023-02-01T04:47:35;3.22;;;1.05;;
48743;SDS011;34538;48.836;9.174;2023-02-01T04:50:02;1.75;;;0.90;;
48743;SDS011;34538;48.836;9.174;2023-02-01T04:52:29;1.65;;;0.90;;
48743;SDS011;34538;48.836;9.174;2023-02-01T04:54:56;1.55;;;0.93;;
48743;SDS011;34538;48.836;9.174;2023-02-01T04:57:25;3.00;;;1.02;;
48743;SDS011;34538;48.836;9.174;2023-02-01T04:59:51;2.00;;;1.20;;
48743;SDS011;34538;48.836;9.174;2023-02-01T05:02:18;1.27;;;1.00;;
48743;SDS011;34538;48.836;9.174;2023-02-01T05:04:46;1.55;;;1.00;;
48743;SDS011;34538;48.836;9.174;2023-02-01T05:07:13;2.22;;;1.38;;
48743;SDS011;34538;48.836;9.174;2023-02-01T05:09:40;1.38;;;1.08;;
48743;SDS011;34538;48.836;9.174;2023-02-01T05:12:07;3.38;;;1.30;;
48743;SDS011;34538;48.836;9.174;2023-02-01T05:14:53;2.50;;;1.08;;
48743;SDS011;34538;48.836;9.174;2023-02-01T05:17:19;2.00;;;1.10;;
48743;SDS011;34538;48.836;9.174;2023-02-01T05:19:48;2.30;;;1.10;;
48743;SDS011;34538;48.836;9.174;2023-02-01T05:22:14;1.65;;;0.85;;
48743;SDS011;34538;48.836;9.174;2023-02-01T05:24:41;1.17;;;1.05;;
48743;SDS011;34538;48.836;9.174;2023-02-01T05:27:08;2.42;;;1.00;;
48743;SDS011;34538;48.836;9.174;2023-02-01T05:29:35;2.78;;;1.38;;
48743;SDS011;34538;48.836;9.174;2023-02-01T05:32:01;1.27;;;0.95;;
48743;SDS011;34538;48.836;9.174;2023-02-01T05:34:28;2.50;;;1.27;;
48743;SDS011;34538;48.836;9.174;2023-02-01T05:36:56;2.03;;;1.13;;
48743;SDS011;34538;48.836;9.174;2023-02-01T05:39:23;1.35;;;0.77;;
48743;SDS011;34538;48.836;9.174;2023-02-01T05:41:50;0.88;;;0.82;;
48743;SDS011;34538;48.836;9.174;2023-02-01T05:44:17;1.65;;;0.90;;
48743;SDS011;34538;48.836;9.174;2023-02-01T05:46:44;1.90;;;1.25;;
48743;SDS011;34538;48.836;9.174;2023-02-01T05:49:11;1.50;;;1.05;;
48743;SDS011;34538;48.836;9.174;2023-02-01T05:51:37;2.15;;;1.10;;
48743;SDS011;34538;48.836;9.174;2023-02-01T05:54:05;1.85;;;1.10;;
48743;SDS011;34538;48.836;9.174;2023-02-01T05:56:34;2.10;;;1.20;;
48743;SDS011;34538;48.836;9.174;2023-02-01T05:59:00;2.25;;;1.20;;
48743;SDS011;34538;48.836;9.174;2023-02-01T06:01:27;1.30;;;1.00;;
48743;SDS011;34538;48.836;9.174;2023-02-01T06:03:54;1.33;;;1.05;;
48743;SDS011;34538;48.836;9.174;2023-02-01T06:06:21;1.75;;;1.00;;
48743;SDS011;34538;48.836;9.174;2023-02-01T06:08:48;2.45;;;1.13;;
48743;SDS011;34538;48.836;9.174;2023-02-01T06:11:16;1.67;;;1.10;;
48743;SDS011;34538;48.836;9.174;2023-02-01T06:13:43;1.75;;;1.17;;
48743;SDS011;34538;48.836;9.174;2023-02-01T06:16:09;1.85;;;1.10;;
48743;SDS011;34538;48.836;9.174;2023-02-01T06:18:36;3.40;;;1.58;;
48743;SDS011;34538;48.836;9.174;2023-02-01T06:21:03;2.28;;;1.25;;
48743;SDS011;34538;48.836;9.174;2023-02-01T06:23:30;1.77;;;1.20;;
48743;SDS011;34538;48.836;9.174;2023-02-01T06:26:01;2.25;;;1.08;;
48743;SDS011;34538;48.836;9.174;2023-02-01T06:30:57;3.35;;;1.30;;
48743;SDS011;34538;48.836;9.174;2023-02-01T06:33:24;1.52;;;1.10;;
48743;SDS011;34538;48.836;9.174;2023-02-01T06:35:56;2.95;;;1.27;;
48743;SDS011;34538;48.836;9.174;2023-02-01T06:38:23;2.35;;;1.20;;
48743;SDS011;34538;48.836;9.174;2023-02-01T06:40:54;2.70;;;1.42;;
48743;SDS011;34538;48.836;9.174;2023-02-01T06:45:50;3.08;;;1.42;;
48743;SDS011;34538;48.836;9.174;2023-02-01T06:48:18;2.17;;;1.42;;
48743;SDS011;34538;48.836;9.174;2023-02-01T06:50:45;3.80;;;1.58;;
48743;SDS011;34538;48.836;9.174;2023-02-01T06:53:12;3.90;;;2.10;;
48743;SDS011;34538;48.836;9.174;2023-02-01T06:55:38;3.78;;;1.63;;
48743;SDS011;34538;48.836;9.174;2023-02-01T06:58:05;3.17;;;1.92;;
48743;SDS011;34538;48.836;9.174;2023-02-01T07:00:32;3.92;;;1.58;;
48743;SDS011;34538;48.836;9.174;2023-02-01T07:03:00;4.53;;;2.05;;
48743;SDS011;34538;48.836;9.174;2023-02-01T07:05:27;5.13;;;1.70;;
48743;SDS011;34538;48.836;9.174;2023-02-01T07:07:54;3.90;;;2.10;;
48743;SDS011;34538;48.836;9.174;2023-02-01T07:10:20;6.75;;;2.28;;
48743;SDS011;34538;48.836;9.174;2023-02-01T07:12:47;4.40;;;2.15;;
48743;SDS011;34538;48.836;9.174;2023-02-01T07:15:14;6.18;;;2.42;;
48743;SDS011;34538;48.836;9.174;2023-02-01T07:17:41;8.68;;;2.42;;
48743;SDS011;34538;48.836;9.174;2023-02-01T07:20:11;7.07;;;2.53;;
48743;SDS011;34538;48.836;9.174;2023-02-01T07:22:38;6.35;;;2.10;;
48743;SDS011;34538;48.836;9.174;2023-02-01T07:25:05;4.38;;;2.05;;
48743;SDS011;34538;48.836;9.174;2023-02-01T07:27:33;3.92;;;2.20;;
48743;SDS011;34538;48.836;9.174;2023-02-01T07:30:00;5.60;;;2.38;;
48743;SDS011;34538;48.836;9.174;2023-02-01T07:32:27;4.72;;;2.00;;
48743;SDS011;34538;48.836;9.174;2023-02-01T07:34:54;6.55;;;2.53;;
48743;SDS011;34538;48.836;9.174;2023-02-01T07:37:22;3.70;;;2.03;;
48743;SDS011;34538;48.836;9.174;2023-02-01T07:39:49;5.53;;;2.25;;
48743;SDS011;34538;48.836;9.174;2023-02-01T07:42:16;4.55;;;2.08;;
48743;SDS011;34538;48.836;9.174;2023-02-01T07:44:43;6.63;;;2.63;;
48743;SDS011;34538;48.836;9.174;2023-02-01T07:47:10;4.35;;;2.00;;
48743;SDS011;34538;48.836;9.174;2023-02-01T07:49:37;3.78;;;2.25;;
48743;SDS011;34538;48.836;9.174;2023-02-01T07:52:04;5.82;;;2.53;;
48743;SDS011;34538;48.836;9.174;2023-02-01T07:54:32;7.07;;;2.60;;
48743;SDS011;34538;48.836;9.174;2023-02-01T07:56:59;4.53;;;2.22;;
48743;SDS011;34538;48.836;9.174;2023-02-01T07:59:25;5.90;;;2.58;;
48743;SDS011;34538;48.836;9.174;2023-02-01T08:01:52;6.03;;;2.17;;
48743;SDS011;34538;48.836;9.174;2023-02-01T08:04:18;8.60;;;2.03;;
48743;SDS011;34538;48.836;9.174;2023-02-01T08:06:45;6.15;;;2.45;;
48743;SDS011;34538;48.836;9.174;2023-02-01T08:09:12;6.22;;;2.30;;
48743;SDS011;34538;48.836;9.174;2023-02-01T08:11:40;7.43;;;2.40;;
48743;SDS011;34538;48.836;9.174;2023-02-01T08:14:07;7.65;;;2.30;;
48743;SDS011;34538;48.836;9.174;2023-02-01T08:16:33;6.60;;;2.13;;
48743;SDS011;34538;48.836;9.174;2023-02-01T08:19:02;13.82;;;2.67;;
48743;SDS011;34538;48.836;9.174;2023-02-01T08:21:29;6.93;;;2.50;;
48743;SDS011;34538;48.836;9.174;2023-02-01T08:24:02;5.03;;;2.15;;
48743;SDS011;34538;48.836;9.174;2023-02-01T08:26:30;7.00;;;2.33;;
48743;SDS011;34538;48.836;9.174;2023-02-01T08:28:59;6.22;;;2.80;;
48743;SDS011;34538;48.836;9.174;2023-02-01T08:31:28;10.85;;;2.53;;
48743;SDS011;34538;48.836;9.174;2023-02-01T08:33:56;9.02;;;2.70;;
48743;SDS011;34538;48.836;9.174;2023-02-01T08:36:25;10.02;;;2.75;;
48743;SDS011;34538;48.836;9.174;2023-02-01T08:38:53;5.72;;;2.45;;
48743;SDS011;34538;48.836;9.174;2023-02-01T08:41:21;6.43;;;2.33;;
48743;SDS011;34538;48.836;9.174;2023-02-01T08:43:50;5.38;;;1.80;;
48743;SDS011;34538;48.836;9.174;2023-02-01T08:46:19;6.25;;;2.15;;
48743;SDS011;34538;48.836;9.174;2023-02-01T08:48:46;7.53;;;2.40;;
48743;SDS011;34538;48.836;9.174;2023-02-01T08:51:15;6.38;;;2.35;;
48743;SDS011;34538;48.836;9.174;2023-02-01T08:53:44;7.97;;;2.20;;
48743;SDS011;34538;48.836;9.174;2023-02-01T08:56:11;7.38;;;2.25;;
48743;SDS011;34538;48.836;9.174;2023-02-01T08:58:39;4.18;;;1.95;;
48743;SDS011;34538;48.836;9.174;2023-02-01T09:01:07;8.02;;;2.60;;
48743;SDS011;34538;48.836;9.174;2023-02-01T09:03:38;6.55;;;2.10;;
48743;SDS011;34538;48.836;9.174;2023-02-01T09:06:05;6.18;;;2.28;;
48743;SDS011;34538;48.836;9.174;2023-02-01T09:08:33;8.25;;;2.67;;
48743;SDS011;34538;48.836;9.174;2023-02-01T09:11:01;6.03;;;2.00;;
48743;SDS011;34538;48.836;9.174;2023-02-01T09:13:29;8.23;;;2.22;;
48743;SDS011;34538;48.836;9.174;2023-02-01T09:15:56;9.30;;;2.13;;
48743;SDS011;34538;48.836;9.174;2023-02-01T09:18:24;6.78;;;2.38;;
48743;SDS011;34538;48.836;9.174;2023-02-01T09:20:52;8.18;;;2.05;;
48743;SDS011;34538;48.836;9.174;2023-02-01T09:23:19;6.55;;;2.08;;
48743;SDS011;34538;48.836;9.174;2023-02-01T09:25:47;10.77;;;2.65;;
48743;SDS011;34538;48.836;9.174;2023-02-01T09:28:15;6.63;;;2.70;;
48743;SDS011;34538;48.836;9.174;2023-02-01T09:30:42;8.93;;;3.10;;
48743;SDS011;34538;48.836;9.174;2023-02-01T09:33:09;7.85;;;2.10;;
48743;SDS011;34538;48.836;9.174;2023-02-01T09:35:35;9.68;;;2.75;;
48743;SDS011;34538;48.836;9.174;2023-02-01T09:38:04;9.40;;;2.78;;
48743;SDS011;34538;48.836;9.174;2023-02-01T09:40:31;9.52;;;2.83;;
48743;SDS011;34538;48.836;9.174;2023-02-01T09:43:06;5.95;;;1.92;;
48743;SDS011;34538;48.836;9.174;2023-02-01T09:45:44;8.93;;;2.47;;
48743;SDS011;34538;48.836;9.174;2023-02-01T09:48:22;7.88;;;2.15;;
48743;SDS011;34538;48.836;9.174;2023-02-01T09:50:54;7.90;;;1.73;;
48743;SDS011;34538;48.836;9.174;2023-02-01T09:53:25;10.07;;;2.90;;
48743;SDS011;34538;48.836;9.174;2023-02-01T09:55:55;8.98;;;2.35;;
48743;SDS011;34538;48.836;9.174;2023-02-01T10:00:57;10.38;;;2.30;;
48743;SDS011;34538;48.836;9.174;2023-02-01T10:03:26;11.50;;;3.17;;
48743;SDS011;34538;48.836;9.174;2023-02-01T10:06:07;7.43;;;2.00;;
48743;SDS011;34538;48.836;9.174;2023-02-01T10:15:02;8.48;;;1.77;;
48743;SDS011;34538;48.836;9.174;2023-02-01T10:17:44;4.70;;;1.58;;
48743;SDS011;34538;48.836;9.174;2023-02-01T10:20:23;7.20;;;2.08;;
48743;SDS011;34538;48.836;9.174;2023-02-01T10:23:00;10.20;;;2.22;;
48743;SDS011;34538;48.836;9.174;2023-02-01T10:25:39;5.80;;;2.30;;
48743;SDS011;34538;48.836;9.174;2023-02-01T10:28:11;7.13;;;2.33;;
48743;SDS011;34538;48.836;9.174;2023-02-01T10:30:43;8.38;;;2.17;;
48743;SDS011;34538;48.836;9.174;2023-02-01T10:33:14;12.73;;;2.40;;
48743;SDS011;34538;48.836;9.174;2023-02-01T10:35:42;7.53;;;2.25;;
48743;SDS011;34538;48.836;9.174;2023-02-01T10:38:12;12.70;;;2.20;;
48743;SDS011;34538;48.836;9.174;2023-02-01T10:40:48;5.05;;;1.90;;
48743;SDS011;34538;48.836;9.174;2023-02-01T10:43:16;8.75;;;2.22;;
48743;SDS011;34538;48.836;9.174;2023-02-01T10:45:43;6.88;;;1.73;;
48743;SDS011;34538;48.836;9.174;2023-02-01T10:48:10;9.38;;;2.35;;
48743;SDS011;34538;48.836;9.174;2023-02-01T10:50:38;10.63;;;2.28;;
48743;SDS011;34538;48.836;9.174;2023-02-01T10:53:11;7.03;;;1.85;;
48743;SDS011;34538;48.836;9.174;2023-02-01T10:55:43;11.65;;;3.00;;
48743;SDS011;34538;48.836;9.174;2023-02-01T10:58:16;11.10;;;1.77;;
48743;SDS011;34538;48.836;9.174;2023-02-01T11:00:45;12.50;;;2.25;;
48743;SDS011;34538;48.836;9.174;2023-02-01T11:03:21;8.55;;;1.98;;
48743;SDS011;34538;48.836;9.174;2023-02-01T11:05:56;7.47;;;1.70;;
48743;SDS011;34538;48.836;9.174;2023-02-01T11:08:23;6.43;;;2.10;;
48743;SDS011;34538;48.836;9.174;2023-02-01T11:10:57;4.72;;;1.65;;
48743;SDS011;34538;48.836;9.174;2023-02-01T11:13:29;7.65;;;2.30;;
48743;SDS011;34538;48.836;9.174;2023-02-01T11:16:02;7.05;;;2.65;;
48743;SDS011;34538;48.836;9.174;2023-02-01T11:18:31;7.10;;;1.63;;
48743;SDS011;34538;48.836;9.174;2023-02-01T11:21:01;3.75;;;1.60;;
48743;SDS011;34538;48.836;9.174;2023-02-01T11:23:29;5.28;;;1.98;;
48743;SDS011;34538;48.836;9.174;2023-02-01T11:26:00;6.07;;;1.75;;
48743;SDS011;34538;48.836;9.174;2023-02-01T11:28:35;8.30;;;2.08;;
48743;SDS011;34538;48.836;9.174;2023-02-01T11:31:19;8.77;;;2.03;;
48743;SDS011;34538;48.836;9.174;2023-02-01T11:33:50;6.07;;;2.05;;
48743;SDS011;34538;48.836;9.174;2023-02-01T11:36:21;8.85;;;1.67;;
48743;SDS011;34538;48.836;9.174;2023-02-01T11:38:52;8.63;;;2.60;;
48743;SDS011;34538;48.836;9.174;2023-02-01T11:41:34;6.07;;;1.85;;
48743;SDS011;34538;48.836;9.174;2023-02-01T11:44:15;8.25;;;2.20;;
48743;SDS011;34538;48.836;9.174;2023-02-01T11:46:46;8.77;;;1.73;;
48743;SDS011;34538;48.836;9.174;2023-02-01T11:49:20;9.05;;;2.10;;
48743;SDS011;34538;48.836;9.174;2023-02-01T11:51:54;5.78;;;1.92;;
48743;SDS011;34538;48.836;9.174;2023-02-01T11:54:37;6.75;;;2.13;;
48743;SDS011;34538;48.836;9.174;2023-02-01T11:57:20;7.88;;;1.58;;
48743;SDS011;34538;48.836;9.174;2023-02-01T12:00:02;8.40;;;1.55;;
48743;SDS011;34538;48.836;9.174;2023-02-01T12:02:53;6.30;;;1.40;;
48743;SDS011;34538;48.836;9.174;2023-02-01T12:05:52;8.68;;;1.27;;
48743;SDS011;34538;48.836;9.174;2023-02-01T12:08:31;4.45;;;1.60;;
48743;SDS011;34538;48.836;9.174;2023-02-01T12:11:29;5.00;;;1.55;;
48743;SDS011;34538;48.836;9.174;2023-02-01T12:14:08;3.53;;;1.27;;
48743;SDS011;34538;48.836;9.174;2023-02-01T12:16:48;5.85;;;1.75;;
48743;SDS011;34538;48.836;9.174;2023-02-01T12:19:30;5.03;;;1.63;;
48743;SDS011;34538;48.836;9.174;2023-02-01T12:22:19;8.80;;;1.95;;
48743;SDS011;34538;48.836;9.174;2023-02-01T12:24:58;9.05;;;1.92;;
48743;SDS011;34538;48.836;9.174;2023-02-01T12:27:46;6.32;;;1.58;;
48743;SDS011;34538;48.836;9.174;2023-02-01T12:30:36;9.55;;;2.33;;
48743;SDS011;34538;48.836;9.174;2023-02-01T12:33:17;9.57;;;1.65;;
48743;SDS011;34538;48.836;9.174;2023-02-01T12:35:57;10.40;;;1.90;;
48743;SDS011;34538;48.836;9.174;2023-02-01T12:38:37;7.40;;;1.63;;
48743;SDS011;34538;48.836;9.174;2023-02-01T12:44:17;10.88;;;2.25;;
48743;SDS011;34538;48.836;9.174;2023-02-01T12:46:54;5.72;;;2.22;;
48743;SDS011;34538;48.836;9.174;2023-02-01T12:49:28;3.00;;;1.10;;
48743;SDS011;34538;48.836;9.174;2023-02-01T12:52:02;7.55;;;1.90;;
48743;SDS011;34538;48.836;9.174;2023-02-01T12:54:34;8.57;;;1.70;;
48743;SDS011;34538;48.836;9.174;2023-02-01T12:57:05;8.40;;;2.00;;
48743;SDS011;34538;48.836;9.174;2023-02-01T12:59:39;12.07;;;1.75;;
48743;SDS011;34538;48.836;9.174;2023-02-01T13:02:16;5.28;;;1.80;;
48743;SDS011;34538;48.836;9.174;2023-02-01T13:04:53;9.70;;;1.73;;
48743;SDS011;34538;48.836;9.174;2023-02-01T13:07:29;10.77;;;2.05;;
48743;SDS011;34538;48.836;9.174;2023-02-01T13:10:01;5.35;;;1.50;;
48743;SDS011;34538;48.836;9.174;2023-02-01T13:12:33;8.70;;;2.22;;
48743;SDS011;34538;48.836;9.174;2023-02-01T13:15:04;7.63;;;1.92;;
48743;SDS011;34538;48.836;9.174;2023-02-01T13:17:45;4.82;;;1.50;;
48743;SDS011;34538;48.836;9.174;2023-02-01T13:20:16;6.60;;;1.95;;
48743;SDS011;34538;48.836;9.174;2023-02-01T13:22:48;6.88;;;2.05;;
48743;SDS011;34538;48.836;9.174;2023-02-01T13:25:23;5.07;;;1.80;;
48743;SDS011;34538;48.836;9.174;2023-02-01T13:27:56;9.48;;;2.00;;
48743;SDS011;34538;48.836;9.174;2023-02-01T13:30:29;5.82;;;1.70;;
48743;SDS011;34538;48.836;9.174;2023-02-01T13:33:12;9.77;;;2.42;;
48743;SDS011;34538;48.836;9.174;2023-02-01T13:36:15;3.75;;;1.83;;
48743;SDS011;34538;48.836;9.174;2023-02-01T13:39:05;9.77;;;2.73;;
48743;SDS011;34538;48.836;9.174;2023-02-01T13:41:54;7.10;;;1.65;;
48743;SDS011;34538;48.836;9.174;2023-02-01T13:44:26;7.10;;;1.77;;
48743;SDS011;34538;48.836;9.174;2023-02-01T13:46:58;10.95;;;2.13;;
48743;SDS011;34538;48.836;9.174;2023-02-01T13:49:31;6.20;;;2.63;;
48743;SDS011;34538;48.836;9.174;2023-02-01T13:52:06;10.05;;;3.38;;
48743;SDS011;34538;48.836;9.174;2023-02-01T13:54:48;11.48;;;2.17;;
48743;SDS011;34538;48.836;9.174;2023-02-01T13:57:35;4.80;;;1.50;;
48743;SDS011;34538;48.836;9.174;2023-02-01T14:00:08;7.38;;;1.73;;
48743;SDS011;34538;48.836;9.174;2023-02-01T14:02:50;10.15;;;1.80;;
48743;SDS011;34538;48.836;9.174;2023-02-01T14:08:37;8.07;;;1.92;;
48743;SDS011;34538;48.836;9.174;2023-02-01T14:14:02;6.57;;;2.03;;
48743;SDS011;34538;48.836;9.174;2023-02-01T14:19:44;5.53;;;1.42;;
48743;SDS011;34538;48.836;9.174;2023-02-01T14:25:01;3.38;;;1.45;;
48743;SDS011;34538;48.836;9.174;2023-02-01T14:27:29;8.45;;;2.35;;
48743;SDS011;34538;48.836;9.174;2023-02-01T14:30:02;8.85;;;1.75;;
48743;SDS011;34538;48.836;9.174;2023-02-01T14:32:33;7.55;;;1.52;;
48743;SDS011;34538;48.836;9.174;2023-02-01T14:37:33;8.90;;;1.83;;
48743;SDS011;34538;48.836;9.174;2023-02-01T14:40:05;8.32;;;1.70;;
48743;SDS011;34538;48.836;9.174;2023-02-01T14:42:43;6.40;;;1.92;;
48743;SDS011;34538;48.836;9.174;2023-02-01T14:51:09;8.35;;;1.80;;
48743;SDS011;34538;48.836;9.174;2023-02-01T14:53:39;10.23;;;2.07;;
48743;SDS011;34538;48.836;9.174;2023-02-01T14:56:12;7.47;;;1.55;;
48743;SDS011;34538;48.836;9.174;2023-02-01T14:58:42;5.60;;;2.03;;
48743;SDS011;34538;48.836;9.174;2023-02-01T15:01:16;10.07;;;2.13;;
48743;SDS011;34538;48.836;9.174;2023-02-01T15:03:49;8.13;;;2.17;;
48743;SDS011;34538;48.836;9.174;2023-02-01T15:06:25;8.07;;;2.65;;
48743;SDS011;34538;48.836;9.174;2023-02-01T15:08:57;4.90;;;1.98;;
48743;SDS011;34538;48.836;9.174;2023-02-01T15:11:27;6.18;;;1.95;;
48743;SDS011;34538;48.836;9.174;2023-02-01T15:13:54;9.38;;;2.05;;
48743;SDS011;34538;48.836;9.174;2023-02-01T15:16:22;7.93;;;1.75;;
48743;SDS011;34538;48.836;9.174;2023-02-01T15:18:50;5.35;;;1.35;;
48743;SDS011;34538;48.836;9.174;2023-02-01T15:21:41;5.93;;;1.60;;
48743;SDS011;34538;48.836;9.174;2023-02-01T15:24:11;8.98;;;1.90;;
48743;SDS011;34538;48.836;9.174;2023-02-01T15:26:41;10.95;;;2.30;;
48743;SDS011;34538;48.836;9.174;2023-02-01T15:29:11;9.75;;;2.42;;
48743;SDS011;34538;48.836;9.174;2023-02-01T15:31:39;6.82;;;2.83;;
48743;SDS011;34538;48.836;9.174;2023-02-01T15:34:07;8.50;;;2.20;;
48743;SDS011;34538;48.836;9.174;2023-02-01T15:36:35;5.43;;;2.28;;
48743;SDS011;34538;48.836;9.174;2023-02-01T15:39:12;5.70;;;1.90;;
48743;SDS011;34538;48.836;9.174;2023-02-01T15:41:50;5.63;;;1.50;;
48743;SDS011;34538;48.836;9.174;2023-02-01T15:49:41;3.55;;;1.45;;
48743;SDS011;34538;48.836;9.174;2023-02-01T15:52:16;8.35;;;2.08;;
48743;SDS011;34538;48.836;9.174;2023-02-01T15:54:49;10.00;;;1.75;;
48743;SDS011;34538;48.836;9.174;2023-02-01T15:57:22;6.45;;;1.95;;
48743;SDS011;34538;48.836;9.174;2023-02-01T15:59:55;7.25;;;2.00;;
48743;SDS011;34538;48.836;9.174;2023-02-01T16:02:25;5.82;;;1.52;;
48743;SDS011;34538;48.836;9.174;2023-02-01T16:04:53;5.40;;;1.60;;